Time;durP1;ratioP1;P1;durP2;ratioP2;P2;SDS_P1;SDS_P2;PMS_P1;PMS_P2;Temp;Humidity;BMP_temperature;BMP_pressure;BME280_temperature;BME280_humidity;BME280_pressure;Samples;Min_cycle;Max_cycle;Signal;HPM_P1;HPM_P2
2023/10/06 00:00:09;;;;;;;;;;;14.10;99.90;;;;;;5078785;28;19931;-32
2023/10/06 00:02:36;;;;;;;;;;;14.00;99.90;;;;;;5074121;28;19924;-31
2023/10/06 00:05:11;;;;;;;;;;;14.00;99.90;;;;;;5083970;28;20008;-32
2023/10/06 00:07:40;;;;;;;;;;;14.00;99.90;;;;;;5077890;28;19939;-32
2023/10/06 00:10:14;;;;;;;;;;;14.00;99.90;;;;;;5093206;28;19928;-32
2023/10/06 00:12:47;;;;;;;;;;;14.00;99.90;;;;;;5071747;28;20032;-32
2023/10/06 00:15:26;;;;;;;;;;;14.00;99.90;;;;;;5086259;28;19931;-32
2023/10/06 00:17:56;;;;;;;;;;;14.00;99.90;;;;;;5075021;28;19928;-32
2023/10/06 00:20:26;;;;;;;;;;;14.00;99.90;;;;;;5072618;28;19931;-31
2023/10/06 00:23:01;;;;;;;;;;;14.00;99.90;;;;;;5083050;28;19930;-34
2023/10/06 00:25:28;;;;;;;;;;;14.00;99.90;;;;;;5092026;28;20443;-32
2023/10/06 00:27:55;;;;;;;;;;;14.00;99.90;;;;;;5090936;28;19924;-33
2023/10/06 00:30:22;;;;;;;;;;;14.00;99.90;;;;;;5083250;28;19924;-33
2023/10/06 00:32:49;;;;;;;;;;;14.10;99.90;;;;;;5090293;28;19924;-31
2023/10/06 00:35:15;;;;;;;;;;;14.10;99.90;;;;;;5087836;28;20344;-33
2023/10/06 00:37:42;;;;;;;;;;;14.10;99.90;;;;;;5082337;28;19975;-31
2023/10/06 00:40:11;;;;;;;;;;;14.00;99.90;;;;;;5079861;28;19928;-32
2023/10/06 00:42:38;;;;;;;;;;;14.10;99.90;;;;;;5091094;28;19928;-32
2023/10/06 00:45:07;;;;;;;;;;;14.00;99.90;;;;;;5090366;28;19924;-32
2023/10/06 00:47:38;;;;;;;;;;;14.10;99.90;;;;;;5084689;28;19929;-31
2023/10/06 00:50:06;;;;;;;;;;;14.00;99.90;;;;;;5077255;28;19970;-32
2023/10/06 00:52:33;;;;;;;;;;;14.00;99.90;;;;;;5087236;28;19930;-32
2023/10/06 00:55:02;;;;;;;;;;;14.10;99.90;;;;;;5089625;28;19932;-33
2023/10/06 00:57:30;;;;;;;;;;;14.00;99.90;;;;;;5090934;28;20019;-32
2023/10/06 00:59:58;;;;;;;;;;;14.10;99.90;;;;;;5089930;28;19932;-31
2023/10/06 01:02:24;;;;;;;;;;;14.10;99.90;;;;;;5091723;28;19924;-34
2023/10/06 01:04:52;;;;;;;;;;;14.10;99.90;;;;;;5089546;28;19931;-32
2023/10/06 01:07:19;;;;;;;;;;;14.10;99.90;;;;;;5088248;28;19924;-33
2023/10/06 01:09:56;;;;;;;;;;;14.10;99.90;;;;;;5080975;28;19977;-31
2023/10/06 01:12:23;;;;;;;;;;;14.10;99.90;;;;;;5075861;28;19950;-33
2023/10/06 01:15:05;;;;;;;;;;;14.10;99.90;;;;;;5089049;28;20057;-32
2023/10/06 01:17:32;;;;;;;;;;;14.10;99.90;;;;;;5071330;28;19928;-32
2023/10/06 01:19:59;;;;;;;;;;;14.10;99.90;;;;;;5086050;28;19937;-32
2023/10/06 01:22:29;;;;;;;;;;;14.10;99.90;;;;;;5070856;28;20402;-32
2023/10/06 01:24:58;;;;;;;;;;;14.10;99.90;;;;;;5079461;28;20011;-33
2023/10/06 01:27:26;;;;;;;;;;;14.10;99.90;;;;;;5087233;28;19975;-32
2023/10/06 01:30:08;;;;;;;;;;;14.00;99.90;;;;;;5082152;28;20429;-31
2023/10/06 01:32:35;;;;;;;;;;;14.00;99.90;;;;;;5076352;28;19924;-32
2023/10/06 01:35:02;;;;;;;;;;;14.00;99.90;;;;;;5087534;28;19924;-34
2023/10/06 01:37:30;;;;;;;;;;;14.10;99.90;;;;;;5090670;28;20442;-32
2023/10/06 01:39:57;;;;;;;;;;;14.00;99.90;;;;;;5089612;28;19924;-31
2023/10/06 01:42:24;;;;;;;;;;;14.10;99.90;;;;;;5075352;28;19977;-32
2023/10/06 01:44:51;;;;;;;;;;;14.10;99.90;;;;;;5090159;28;19931;-33
2023/10/06 01:47:18;;;;;;;;;;;14.00;99.90;;;;;;5078377;28;20296;-32
2023/10/06 01:49:47;;;;;;;;;;;14.00;99.90;;;;;;5117594;27;19925;-32
2023/10/06 01:52:19;;;;;;;;;;;14.00;99.90;;;;;;5094096;28;19924;-31
2023/10/06 01:54:47;;;;;;;;;;;14.00;99.90;;;;;;5088708;28;19924;-32
2023/10/06 01:57:16;;;;;;;;;;;14.00;99.90;;;;;;5085225;28;19925;-32
2023/10/06 01:59:44;;;;;;;;;;;14.00;99.90;;;;;;5091730;28;19924;-32
2023/10/06 02:02:12;;;;;;;;;;;14.00;99.90;;;;;;5091099;28;19975;-33
2023/10/06 02:04:44;;;;;;;;;;;14.00;99.90;;;;;;5088714;28;20287;-32
2023/10/06 02:07:11;;;;;;;;;;;14.00;99.90;;;;;;5086221;28;20358;-32
2023/10/06 02:09:38;;;;;;;;;;;14.00;99.90;;;;;;5090938;28;19928;-32
2023/10/06 02:12:06;;;;;;;;;;;14.00;99.90;;;;;;5075877;28;19924;-33
2023/10/06 02:14:33;;;;;;;;;;;14.00;99.90;;;;;;5093669;28;20413;-33
2023/10/06 02:17:05;;;;;;;;;;;14.00;99.90;;;;;;5092861;28;19928;-32
2023/10/06 02:19:32;;;;;;;;;;;14.00;99.90;;;;;;5078725;28;20403;-31
2023/10/06 02:21:59;;;;;;;;;;;14.00;99.90;;;;;;5092946;28;20291;-31
2023/10/06 02:24:25;;;;;;;;;;;14.00;99.90;;;;;;5087432;28;19924;-32
2023/10/06 02:26:57;;;;;;;;;;;14.00;99.90;;;;;;5093237;28;19977;-33
2023/10/06 02:29:26;;;;;;;;;;;14.00;99.90;;;;;;5093619;28;19928;-31
2023/10/06 02:32:00;;;;;;;;;;;14.00;99.90;;;;;;5092323;28;19970;-32
2023/10/06 02:34:29;;;;;;;;;;;14.00;99.90;;;;;;5077863;28;19924;-32
2023/10/06 02:36:55;;;;;;;;;;;14.00;99.90;;;;;;5093075;28;19932;-32
2023/10/06 02:39:26;;;;;;;;;;;14.00;99.90;;;;;;5092942;28;19924;-31
2023/10/06 02:41:57;;;;;;;;;;;14.00;99.90;;;;;;5093073;28;20380;-32
2023/10/06 02:44:26;;;;;;;;;;;14.00;99.90;;;;;;5093542;28;20369;-33
2023/10/06 02:46:52;;;;;;;;;;;14.00;99.90;;;;;;5090648;28;19935;-33
2023/10/06 02:49:24;;;;;;;;;;;14.00;99.90;;;;;;5079679;28;19924;-32
2023/10/06 02:51:54;;;;;;;;;;;14.00;99.90;;;;;;5085009;28;19924;-32
2023/10/06 02:54:27;;;;;;;;;;;14.00;99.90;;;;;;5079628;28;19928;-31
2023/10/06 02:56:55;;;;;;;;;;;14.00;99.90;;;;;;5092277;28;21299;-32
2023/10/06 02:59:22;;;;;;;;;;;14.00;99.90;;;;;;5089345;28;20296;-33
2023/10/06 03:01:55;;;;;;;;;;;14.00;99.90;;;;;;5083954;28;19931;-31
2023/10/06 03:04:25;;;;;;;;;;;14.00;99.90;;;;;;5074249;28;19971;-32
2023/10/06 03:06:54;;;;;;;;;;;14.00;99.90;;;;;;5082598;28;20323;-32
2023/10/06 03:09:21;;;;;;;;;;;14.00;99.90;;;;;;5081224;28;19924;-33
2023/10/06 03:11:49;;;;;;;;;;;14.00;99.90;;;;;;5082104;28;19924;-32
2023/10/06 03:14:19;;;;;;;;;;;14.00;99.90;;;;;;5081538;28;20380;-32
2023/10/06 03:16:50;;;;;;;;;;;13.90;99.90;;;;;;5078956;28;19924;-31
2023/10/06 03:19:25;;;;;;;;;;;14.00;99.90;;;;;;5091508;28;19934;-32
2023/10/06 03:21:56;;;;;;;;;;;14.00;99.90;;;;;;5094772;28;19928;-32
2023/10/06 03:24:31;;;;;;;;;;;13.90;99.90;;;;;;5092117;28;19931;-31
2023/10/06 03:26:58;;;;;;;;;;;13.90;99.90;;;;;;5073409;28;19925;-31
2023/10/06 03:29:34;;;;;;;;;;;13.90;99.90;;;;;;5075120;28;20501;-31
2023/10/06 03:32:01;;;;;;;;;;;13.80;99.90;;;;;;5075132;28;19928;-31
2023/10/06 03:34:31;;;;;;;;;;;13.80;99.90;;;;;;5074618;28;19939;-31
2023/10/06 03:36:58;;;;;;;;;;;13.80;99.90;;;;;;5075116;28;19967;-31
2023/10/06 03:39:28;;;;;;;;;;;13.80;99.90;;;;;;5076233;28;19925;-31
2023/10/06 03:41:59;;;;;;;;;;;13.80;99.90;;;;;;5086428;28;19924;-31
2023/10/06 03:44:26;;;;;;;;;;;13.80;99.90;;;;;;5082737;28;19925;-31
2023/10/06 03:46:53;;;;;;;;;;;13.80;99.90;;;;;;5077096;28;19985;-30
2023/10/06 03:49:20;;;;;;;;;;;13.70;99.90;;;;;;5085008;28;19924;-30
2023/10/06 03:51:48;;;;;;;;;;;13.70;99.90;;;;;;5075119;28;19924;-32
2023/10/06 03:54:15;;;;;;;;;;;13.70;99.90;;;;;;5071640;28;19925;-32
2023/10/06 03:56:45;;;;;;;;;;;13.70;99.90;;;;;;5083487;28;20359;-33
2023/10/06 03:59:15;;;;;;;;;;;13.70;99.90;;;;;;5087236;28;19932;-31
2023/10/06 04:01:44;;;;;;;;;;;13.70;99.90;;;;;;5088542;28;19924;-31
2023/10/06 04:04:11;;;;;;;;;;;13.70;99.90;;;;;;5087506;28;19970;-31
2023/10/06 04:06:37;;;;;;;;;;;13.70;99.90;;;;;;5083714;28;19924;-31
2023/10/06 04:09:06;;;;;;;;;;;13.70;99.90;;;;;;5090458;28;19924;-33
2023/10/06 04:11:34;;;;;;;;;;;13.70;99.90;;;;;;5078679;28;19924;-31
2023/10/06 04:14:00;;;;;;;;;;;13.70;99.90;;;;;;5078281;28;20475;-32
2023/10/06 04:16:27;;;;;;;;;;;13.70;99.90;;;;;;5081891;28;19930;-31
2023/10/06 04:18:54;;;;;;;;;;;13.70;99.90;;;;;;5075882;28;19947;-31
2023/10/06 04:21:24;;;;;;;;;;;13.70;99.90;;;;;;5091575;28;19928;-31
2023/10/06 04:23:50;;;;;;;;;;;13.70;99.90;;;;;;5073193;28;19925;-32
2023/10/06 04:26:18;;;;;;;;;;;13.70;99.90;;;;;;5085698;28;19985;-32
2023/10/06 04:28:47;;;;;;;;;;;13.70;99.90;;;;;;5080231;28;19975;-32
2023/10/06 04:31:15;;;;;;;;;;;13.70;99.90;;;;;;5076325;28;19924;-32
2023/10/06 04:33:41;;;;;;;;;;;13.70;99.90;;;;;;5080135;28;19969;-31
2023/10/06 04:36:08;;;;;;;;;;;13.70;99.90;;;;;;5086686;28;19932;-32
2023/10/06 04:38:37;;;;;;;;;;;13.60;99.90;;;;;;5075419;28;19924;-31
2023/10/06 04:41:06;;;;;;;;;;;13.60;99.90;;;;;;5083188;28;19931;-32
2023/10/06 04:43:34;;;;;;;;;;;13.60;99.90;;;;;;5077215;28;19939;-31
2023/10/06 04:46:02;;;;;;;;;;;13.60;99.90;;;;;;5075045;28;19971;-32
2023/10/06 04:48:29;;;;;;;;;;;13.60;99.90;;;;;;5108216;27;19958;-31
2023/10/06 04:50:56;;;;;;;;;;;13.60;99.90;;;;;;5081560;28;19928;-31
2023/10/06 04:53:23;;;;;;;;;;;13.70;99.90;;;;;;5092016;28;19924;-33
2023/10/06 04:55:51;;;;;;;;;;;13.60;99.90;;;;;;5073373;28;19925;-32
2023/10/06 04:58:18;;;;;;;;;;;13.60;99.90;;;;;;5079798;28;19924;-31
2023/10/06 05:00:52;;;;;;;;;;;13.60;99.90;;;;;;5078232;28;19932;-31
2023/10/06 05:03:19;;;;;;;;;;;13.60;99.90;;;;;;5081204;28;19925;-32
2023/10/06 05:05:46;;;;;;;;;;;13.60;99.90;;;;;;5078216;28;19977;-31
2023/10/06 05:08:14;;;;;;;;;;;13.60;99.90;;;;;;5085172;28;19931;-31
2023/10/06 05:10:41;;;;;;;;;;;13.70;99.90;;;;;;5086584;28;20089;-31
2023/10/06 05:13:08;;;;;;;;;;;13.60;99.90;;;;;;5079661;28;19978;-32
2023/10/06 05:15:34;;;;;;;;;;;13.70;99.90;;;;;;5074090;28;19936;-32
2023/10/06 05:18:03;;;;;;;;;;;13.70;99.90;;;;;;5075291;28;20049;-31
2023/10/06 05:20:30;;;;;;;;;;;13.70;99.90;;;;;;5101857;28;19939;-31
2023/10/06 05:22:58;;;;;;;;;;;13.60;99.90;;;;;;5079916;28;19925;-31
2023/10/06 05:25:26;;;;;;;;;;;13.70;99.90;;;;;;5094437;28;19930;-32
2023/10/06 05:27:53;;;;;;;;;;;13.70;99.90;;;;;;5090096;28;19955;-33
2023/10/06 05:30:21;;;;;;;;;;;13.70;99.90;;;;;;5079536;28;19979;-33
2023/10/06 05:32:47;;;;;;;;;;;13.70;99.90;;;;;;5082845;28;19924;-32
2023/10/06 05:35:15;;;;;;;;;;;13.70;99.90;;;;;;5111170;27;19967;-32
2023/10/06 05:37:43;;;;;;;;;;;13.70;99.90;;;;;;5085017;28;19924;-32
2023/10/06 05:40:13;;;;;;;;;;;13.70;99.90;;;;;;5081258;28;19967;-32
2023/10/06 05:42:40;;;;;;;;;;;13.70;99.90;;;;;;5077151;28;19929;-32
2023/10/06 05:45:15;;;;;;;;;;;13.70;99.90;;;;;;5084259;28;20418;-32
2023/10/06 05:47:43;;;;;;;;;;;13.80;99.90;;;;;;5081650;28;19932;-31
2023/10/06 05:50:11;;;;;;;;;;;13.80;99.90;;;;;;5087652;28;19938;-31
2023/10/06 05:52:39;;;;;;;;;;;13.80;99.90;;;;;;5078995;28;20360;-31
2023/10/06 05:55:09;;;;;;;;;;;13.80;99.90;;;;;;5087615;28;19923;-32
2023/10/06 05:57:38;;;;;;;;;;;13.80;99.90;;;;;;5088956;28;19924;-31
2023/10/06 06:00:06;;;;;;;;;;;13.70;99.90;;;;;;5092899;28;19975;-31
2023/10/06 06:02:37;;;;;;;;;;;13.80;99.90;;;;;;5079515;28;19924;-31
2023/10/06 06:05:04;;;;;;;;;;;13.80;99.90;;;;;;5092344;28;19943;-31
2023/10/06 06:07:33;;;;;;;;;;;13.90;99.90;;;;;;5085998;28;19923;-32
2023/10/06 06:10:04;;;;;;;;;;;13.90;99.90;;;;;;5089573;28;19924;-32
2023/10/06 06:12:30;;;;;;;;;;;13.90;99.90;;;;;;5093948;28;20018;-31
2023/10/06 06:14:57;;;;;;;;;;;13.90;99.90;;;;;;5088973;28;19941;-32
2023/10/06 06:17:24;;;;;;;;;;;14.00;99.90;;;;;;5084924;28;19974;-31
2023/10/06 06:19:50;;;;;;;;;;;14.00;99.90;;;;;;5081928;28;20462;-32
2023/10/06 06:22:19;;;;;;;;;;;14.00;99.90;;;;;;5089722;28;19928;-32
2023/10/06 06:24:47;;;;;;;;;;;14.00;99.90;;;;;;5091053;28;20324;-33
2023/10/06 06:27:15;;;;;;;;;;;14.10;99.90;;;;;;5085989;28;19970;-32
2023/10/06 06:29:43;;;;;;;;;;;14.10;99.90;;;;;;5088216;28;19924;-32
2023/10/06 06:32:11;;;;;;;;;;;14.10;99.90;;;;;;5082966;28;19939;-31
2023/10/06 06:34:38;;;;;;;;;;;14.10;99.90;;;;;;5091150;28;19930;-32
2023/10/06 06:37:05;;;;;;;;;;;14.20;99.90;;;;;;5083390;28;19924;-31
2023/10/06 06:39:33;;;;;;;;;;;14.20;99.90;;;;;;5091947;28;20295;-32
2023/10/06 06:42:00;;;;;;;;;;;14.20;99.90;;;;;;5093727;28;19924;-33
2023/10/06 06:44:29;;;;;;;;;;;14.20;99.90;;;;;;5092138;28;19924;-32
2023/10/06 06:46:56;;;;;;;;;;;14.30;99.90;;;;;;5079505;28;19924;-32
2023/10/06 06:49:23;;;;;;;;;;;14.20;99.90;;;;;;5088702;28;19924;-31
2023/10/06 06:51:52;;;;;;;;;;;14.30;99.90;;;;;;5093766;28;19955;-33
2023/10/06 06:54:19;;;;;;;;;;;14.30;99.90;;;;;;5092781;28;19931;-31
2023/10/06 06:56:47;;;;;;;;;;;14.30;99.90;;;;;;5077022;28;19924;-31
2023/10/06 06:59:13;;;;;;;;;;;14.30;99.90;;;;;;5071711;28;19986;-33
2023/10/06 07:01:41;;;;;;;;;;;14.40;99.90;;;;;;5090033;28;19928;-32
2023/10/06 07:04:08;;;;;;;;;;;14.40;99.90;;;;;;5087161;28;20482;-31
2023/10/06 07:06:35;;;;;;;;;;;14.40;99.90;;;;;;5090724;28;19992;-32
2023/10/06 07:09:02;;;;;;;;;;;14.40;99.90;;;;;;5083080;28;20005;-32
2023/10/06 07:11:28;;;;;;;;;;;14.40;99.90;;;;;;5084989;28;20368;-33
2023/10/06 07:13:56;;;;;;;;;;;14.40;99.90;;;;;;5075299;28;19928;-32
2023/10/06 07:16:24;;;;;;;;;;;14.50;99.90;;;;;;5077552;28;19935;-33
2023/10/06 07:18:53;;;;;;;;;;;14.50;99.90;;;;;;5090709;28;20366;-33
2023/10/06 07:21:22;;;;;;;;;;;14.50;99.90;;;;;;5079423;28;20423;-34
2023/10/06 07:23:51;;;;;;;;;;;14.60;99.90;;;;;;5081464;28;19928;-33
2023/10/06 07:26:18;;;;;;;;;;;14.50;99.90;;;;;;5087333;28;20000;-32
2023/10/06 07:28:51;;;;;;;;;;;14.60;99.90;;;;;;5087992;28;19924;-31
2023/10/06 07:31:19;;;;;;;;;;;14.50;99.90;;;;;;5086442;28;19924;-31
2023/10/06 07:33:47;;;;;;;;;;;14.50;99.90;;;;;;5078166;28;20364;-31
2023/10/06 07:36:17;;;;;;;;;;;14.60;99.90;;;;;;5081597;28;19924;-33
2023/10/06 07:38:44;;;;;;;;;;;14.60;99.90;;;;;;5080513;28;19924;-33
2023/10/06 07:41:17;;;;;;;;;;;14.50;99.90;;;;;;5105076;27;19928;-31
2023/10/06 07:43:46;;;;;;;;;;;14.60;99.90;;;;;;5092672;28;19970;-32
2023/10/06 07:46:13;;;;;;;;;;;14.70;99.90;;;;;;5083850;28;20295;-32
2023/10/06 07:48:40;;;;;;;;;;;14.70;99.90;;;;;;5076088;28;19924;-32
2023/10/06 07:51:07;;;;;;;;;;;14.70;99.90;;;;;;5090094;28;20011;-32
2023/10/06 07:53:38;;;;;;;;;;;14.80;99.90;;;;;;5089941;28;19925;-31
2023/10/06 07:56:06;;;;;;;;;;;14.80;99.90;;;;;;5118949;27;20015;-32
2023/10/06 07:58:33;;;;;;;;;;;14.80;99.90;;;;;;5078633;28;19931;-32
2023/10/06 08:01:02;;;;;;;;;;;14.80;99.90;;;;;;5079442;28;19924;-30
2023/10/06 08:03:29;;;;;;;;;;;14.90;99.90;;;;;;5079442;28;19935;-31
2023/10/06 08:05:56;;;;;;;;;;;14.90;99.90;;;;;;5079608;28;19928;-30
2023/10/06 08:08:22;;;;;;;;;;;14.90;99.90;;;;;;5080796;28;19971;-31
2023/10/06 08:10:51;;;;;;;;;;;15.00;99.90;;;;;;5085639;28;19981;-31
2023/10/06 08:13:18;;;;;;;;;;;15.00;99.90;;;;;;5076334;28;19924;-31
2023/10/06 08:15:45;;;;;;;;;;;15.00;99.90;;;;;;5073310;28;21156;-31
2023/10/06 08:18:12;;;;;;;;;;;15.00;99.90;;;;;;5084150;28;19989;-31
2023/10/06 08:20:40;;;;;;;;;;;15.10;99.90;;;;;;5086215;28;19924;-32
2023/10/06 08:23:07;;;;;;;;;;;15.10;99.90;;;;;;5081319;28;20012;-31
2023/10/06 08:25:33;;;;;;;;;;;15.10;99.90;;;;;;5081099;28;20019;-33
2023/10/06 08:28:04;;;;;;;;;;;15.20;99.90;;;;;;5078016;28;20004;-32
2023/10/06 08:30:32;;;;;;;;;;;15.20;99.90;;;;;;5071334;28;19981;-31
2023/10/06 08:32:59;;;;;;;;;;;15.20;99.90;;;;;;5071215;28;20338;-32
2023/10/06 08:35:26;;;;;;;;;;;15.30;99.90;;;;;;5071436;28;20020;-31
2023/10/06 08:37:53;;;;;;;;;;;15.40;99.90;;;;;;5081581;28;19930;-32
2023/10/06 08:40:22;;;;;;;;;;;15.40;99.90;;;;;;5084101;28;19924;-31
2023/10/06 08:42:54;;;;;;;;;;;15.50;99.90;;;;;;5091268;28;19931;-32
2023/10/06 08:45:23;;;;;;;;;;;15.50;99.90;;;;;;5075581;28;19954;-33
2023/10/06 08:47:50;;;;;;;;;;;15.50;99.90;;;;;;5070157;28;20239;-30
2023/10/06 08:50:22;;;;;;;;;;;15.50;99.90;;;;;;5085408;28;19924;-31
2023/10/06 08:52:50;;;;;;;;;;;15.60;99.90;;;;;;5091290;28;19928;-31
2023/10/06 08:55:17;;;;;;;;;;;15.60;99.90;;;;;;5078686;28;19932;-32
2023/10/06 08:57:45;;;;;;;;;;;15.60;99.90;;;;;;5071219;28;19924;-31
2023/10/06 09:00:13;;;;;;;;;;;15.60;99.90;;;;;;5070216;28;19925;-31
2023/10/06 09:02:41;;;;;;;;;;;15.70;99.90;;;;;;5071658;28;19924;-32
2023/10/06 09:05:09;;;;;;;;;;;15.70;99.90;;;;;;5073687;28;20340;-32
2023/10/06 09:07:38;;;;;;;;;;;15.70;99.90;;;;;;5070360;28;20288;-31
2023/10/06 09:10:18;;;;;;;;;;;15.80;99.90;;;;;;5073447;28;20023;-32
2023/10/06 09:12:46;;;;;;;;;;;15.90;99.90;;;;;;5080402;28;20020;-31
2023/10/06 09:15:15;;;;;;;;;;;16.00;99.90;;;;;;5089876;28;19924;-30
2023/10/06 09:17:45;;;;;;;;;;;16.00;99.90;;;;;;5089113;28;20018;-32
2023/10/06 09:20:11;;;;;;;;;;;16.20;99.90;;;;;;5089844;28;20016;-31
2023/10/06 09:22:45;;;;;;;;;;;16.10;99.90;;;;;;5087782;28;19924;-30
2023/10/06 09:25:11;;;;;;;;;;;16.20;99.90;;;;;;5078568;28;19974;-30
2023/10/06 09:27:38;;;;;;;;;;;16.30;99.90;;;;;;5069441;28;20443;-31
2023/10/06 09:30:10;;;;;;;;;;;16.40;99.90;;;;;;5074028;28;19954;-32
2023/10/06 09:32:37;;;;;;;;;;;16.50;99.90;;;;;;5089635;28;20335;-31
2023/10/06 09:35:21;;;;;;;;;;;16.50;99.90;;;;;;5088621;28;20676;-31
2023/10/06 09:37:47;;;;;;;;;;;16.70;99.90;;;;;;5081028;28;20432;-32
2023/10/06 09:40:20;;;;;;;;;;;16.70;99.90;;;;;;5083685;28;20505;-32
2023/10/06 09:42:47;;;;;;;;;;;16.80;99.90;;;;;;5070463;28;20011;-31
2023/10/06 09:45:15;;;;;;;;;;;16.80;99.90;;;;;;5087592;28;19924;-34
2023/10/06 09:47:44;;;;;;;;;;;16.90;99.90;;;;;;5089630;28;19950;-31
2023/10/06 09:50:13;;;;;;;;;;;17.00;99.90;;;;;;5087608;28;20019;-31
2023/10/06 09:52:43;;;;;;;;;;;17.00;99.90;;;;;;5085064;28;19924;-32
2023/10/06 09:55:09;;;;;;;;;;;17.10;99.90;;;;;;5076503;28;19924;-32
2023/10/06 09:57:36;;;;;;;;;;;17.10;99.90;;;;;;5087873;28;20398;-31
2023/10/06 10:00:05;;;;;;;;;;;17.20;99.90;;;;;;5082709;28;19967;-32
2023/10/06 10:02:32;;;;;;;;;;;17.20;99.90;;;;;;5089103;28;19928;-31
2023/10/06 10:05:00;;;;;;;;;;;17.30;99.90;;;;;;5071009;28;19932;-32
2023/10/06 10:07:27;;;;;;;;;;;17.30;99.90;;;;;;5081723;28;20318;-31
2023/10/06 10:09:55;;;;;;;;;;;17.40;99.90;;;;;;5094292;28;19924;-31
2023/10/06 10:12:24;;;;;;;;;;;17.40;99.90;;;;;;5121238;27;19925;-35
2023/10/06 10:14:56;;;;;;;;;;;17.50;99.90;;;;;;5077147;28;19936;-32
2023/10/06 10:17:25;;;;;;;;;;;17.60;99.90;;;;;;5082288;28;20020;-32
2023/10/06 10:19:53;;;;;;;;;;;17.70;99.90;;;;;;5088749;28;19932;-31
2023/10/06 10:22:21;;;;;;;;;;;17.80;99.90;;;;;;5086903;28;19931;-32
2023/10/06 10:24:47;;;;;;;;;;;17.90;99.90;;;;;;5083396;28;19967;-32
2023/10/06 10:27:18;;;;;;;;;;;18.10;99.90;;;;;;5092044;28;19973;-32
2023/10/06 10:29:45;;;;;;;;;;;18.20;99.90;;;;;;5085361;28;19931;-33
2023/10/06 10:32:12;;;;;;;;;;;18.40;99.90;;;;;;5092869;28;19968;-31
2023/10/06 10:34:53;;;;;;;;;;;18.50;99.90;;;;;;5082877;28;19974;-32
2023/10/06 10:37:22;;;;;;;;;;;18.50;99.90;;;;;;5073175;28;19924;-32
2023/10/06 10:39:49;;;;;;;;;;;18.50;99.90;;;;;;5074951;28;19984;-32
2023/10/06 10:42:18;;;;;;;;;;;18.60;99.90;;;;;;5079014;28;20037;-32
2023/10/06 10:44:45;;;;;;;;;;;18.70;99.90;;;;;;5107439;28;20100;-34
2023/10/06 10:47:12;;;;;;;;;;;18.70;99.90;;;;;;5082540;28;19984;-32
2023/10/06 10:49:40;;;;;;;;;;;18.70;99.90;;;;;;5094289;28;19940;-33
2023/10/06 10:52:07;;;;;;;;;;;18.70;99.90;;;;;;5087335;28;19956;-33
2023/10/06 10:54:34;;;;;;;;;;;18.70;99.90;;;;;;5083921;28;19944;-32
2023/10/06 10:57:05;;;;;;;;;;;18.60;99.90;;;;;;5091995;28;19936;-35
2023/10/06 10:59:56;;;;;;;;;;;18.50;99.90;;;;;;5091298;28;19986;-34
2023/10/06 11:02:24;;;;;;;;;;;18.50;99.90;;;;;;5081618;28;19940;-33
2023/10/06 11:04:51;;;;;;;;;;;18.50;99.90;;;;;;5090992;28;19965;-33
2023/10/06 11:07:18;;;;;;;;;;;18.50;99.90;;;;;;5090781;28;19942;-31
2023/10/06 11:09:48;;;;;;;;;;;18.50;99.90;;;;;;5089636;28;19940;-33
2023/10/06 11:12:21;;;;;;;;;;;18.50;99.90;;;;;;5089567;28;20048;-30
2023/10/06 11:14:49;;;;;;;;;;;18.50;99.90;;;;;;5106864;27;19986;-31
2023/10/06 11:17:20;;;;;;;;;;;18.50;99.90;;;;;;5072325;28;19948;-31
2023/10/06 11:19:48;;;;;;;;;;;18.40;99.90;;;;;;5071976;28;19943;-31
2023/10/06 11:22:19;;;;;;;;;;;18.40;99.90;;;;;;5074138;28;20400;-32
2023/10/06 11:24:46;;;;;;;;;;;18.50;99.90;;;;;;5082153;28;19994;-32
2023/10/06 11:27:14;;;;;;;;;;;18.50;99.90;;;;;;5094408;28;19950;-31
2023/10/06 11:29:41;;;;;;;;;;;18.50;99.90;;;;;;5093209;28;20044;-32
2023/10/06 11:32:08;;;;;;;;;;;18.50;99.90;;;;;;5092939;28;19942;-32
2023/10/06 11:34:35;;;;;;;;;;;18.50;99.90;;;;;;5093219;28;20007;-31
2023/10/06 11:37:05;;;;;;;;;;;18.60;99.90;;;;;;5092610;28;19952;-32
2023/10/06 11:39:31;;;;;;;;;;;18.50;99.90;;;;;;5092893;28;19951;-32
2023/10/06 11:42:17;;;;;;;;;;;18.60;99.90;;;;;;5092953;28;19945;-32
2023/10/06 11:44:43;;;;;;;;;;;18.60;99.90;;;;;;5089759;28;20400;-31
2023/10/06 11:47:10;;;;;;;;;;;18.70;99.90;;;;;;5087910;28;19984;-32
2023/10/06 11:49:52;;;;;;;;;;;18.70;99.90;;;;;;5083532;28;20135;-32
2023/10/06 11:52:20;;;;;;;;;;;18.70;99.90;;;;;;5089810;28;19953;-32
2023/10/06 11:54:47;;;;;;;;;;;18.70;99.90;;;;;;5115561;27;19938;-32
2023/10/06 11:57:13;;;;;;;;;;;18.80;99.90;;;;;;5118384;27;19952;-31
2023/10/06 11:59:48;;;;;;;;;;;18.90;99.90;;;;;;5087781;28;20416;-33
2023/10/06 12:02:15;;;;;;;;;;;19.00;99.90;;;;;;5090256;28;19991;-32
2023/10/06 12:04:41;;;;;;;;;;;19.10;99.90;;;;;;5086575;28;19964;-32
2023/10/06 12:07:09;;;;;;;;;;;19.10;99.90;;;;;;5085689;28;19950;-32
2023/10/06 12:09:38;;;;;;;;;;;19.10;99.90;;;;;;5082297;28;19945;-32
2023/10/06 12:12:05;;;;;;;;;;;19.20;99.90;;;;;;5075240;28;20448;-33
2023/10/06 12:14:33;;;;;;;;;;;19.30;99.90;;;;;;5087782;28;19972;-31
2023/10/06 12:17:00;;;;;;;;;;;19.40;99.90;;;;;;5090528;28;19946;-32
2023/10/06 12:19:27;;;;;;;;;;;19.50;99.90;;;;;;5109899;27;19982;-31
2023/10/06 12:21:53;;;;;;;;;;;19.60;99.90;;;;;;5091577;28;19945;-31
2023/10/06 12:24:22;;;;;;;;;;;19.70;99.90;;;;;;5090253;28;19940;-31
2023/10/06 12:26:50;;;;;;;;;;;19.70;99.90;;;;;;5088549;28;20397;-31
2023/10/06 12:29:17;;;;;;;;;;;19.70;99.90;;;;;;5087387;28;19945;-34
2023/10/06 12:31:44;;;;;;;;;;;19.70;99.90;;;;;;5080429;28;20028;-34
2023/10/06 12:34:15;;;;;;;;;;;19.70;99.90;;;;;;5085069;28;20007;-33
2023/10/06 12:36:42;;;;;;;;;;;19.70;99.90;;;;;;5113395;27;19986;-32
2023/10/06 12:39:15;;;;;;;;;;;19.70;99.90;;;;;;5081440;28;20390;-32
2023/10/06 12:41:46;;;;;;;;;;;19.80;99.90;;;;;;5080634;28;20386;-32
2023/10/06 12:44:14;;;;;;;;;;;19.90;99.90;;;;;;5092305;28;19996;-32
2023/10/06 12:46:41;;;;;;;;;;;19.90;99.90;;;;;;5091384;28;19975;-32
2023/10/06 12:49:08;;;;;;;;;;;19.90;99.90;;;;;;5089416;28;19968;-33
2023/10/06 12:51:34;;;;;;;;;;;19.90;99.90;;;;;;5091880;28;19948;-33
2023/10/06 12:54:01;;;;;;;;;;;20.00;99.90;;;;;;5092866;28;20378;-31
2023/10/06 12:56:28;;;;;;;;;;;20.10;99.90;;;;;;5092672;28;19939;-32
2023/10/06 12:58:55;;;;;;;;;;;20.10;99.90;;;;;;5090771;28;20415;-32
2023/10/06 13:01:25;;;;;;;;;;;20.20;99.90;;;;;;5079943;28;20358;-32
2023/10/06 13:03:53;;;;;;;;;;;20.20;99.90;;;;;;5083228;28;19949;-33
2023/10/06 13:06:22;;;;;;;;;;;20.20;99.90;;;;;;5083828;28;20498;-33
2023/10/06 13:08:49;;;;;;;;;;;20.20;99.90;;;;;;5087948;28;19944;-34
2023/10/06 13:11:18;;;;;;;;;;;20.10;99.90;;;;;;5079779;28;20312;-33
2023/10/06 13:13:49;;;;;;;;;;;20.10;99.90;;;;;;5084378;28;19962;-32
2023/10/06 13:16:16;;;;;;;;;;;20.10;99.90;;;;;;5086321;28;19945;-32
2023/10/06 13:18:44;;;;;;;;;;;20.00;99.90;;;;;;5083774;28;19953;-32
2023/10/06 13:21:11;;;;;;;;;;;19.90;99.90;;;;;;5083901;28;20550;-33
2023/10/06 13:23:38;;;;;;;;;;;19.90;99.90;;;;;;5085270;28;19941;-32
2023/10/06 13:26:05;;;;;;;;;;;19.80;99.90;;;;;;5081806;28;19969;-32
2023/10/06 13:28:32;;;;;;;;;;;19.80;99.90;;;;;;5085174;28;19990;-32
2023/10/06 13:30:59;;;;;;;;;;;19.80;99.90;;;;;;5079357;28;20410;-32
2023/10/06 13:33:26;;;;;;;;;;;19.90;99.90;;;;;;5083965;28;20413;-32
2023/10/06 13:35:54;;;;;;;;;;;20.00;99.90;;;;;;5082054;28;20406;-33
2023/10/06 13:38:21;;;;;;;;;;;20.10;99.90;;;;;;5080014;28;19952;-32
2023/10/06 13:40:48;;;;;;;;;;;20.40;99.90;;;;;;5077833;28;19945;-31
2023/10/06 13:43:15;;;;;;;;;;;20.50;99.90;;;;;;5092226;28;19947;-32
2023/10/06 13:45:44;;;;;;;;;;;20.70;99.90;;;;;;5084621;28;20045;-33
2023/10/06 13:48:12;;;;;;;;;;;20.80;99.90;;;;;;5081536;28;20017;-32
2023/10/06 13:50:40;;;;;;;;;;;20.80;99.90;;;;;;5081410;28;19942;-32
2023/10/06 13:53:08;;;;;;;;;;;20.90;99.90;;;;;;5080457;28;19956;-34
2023/10/06 13:55:35;;;;;;;;;;;21.00;99.90;;;;;;5088389;28;20297;-33
2023/10/06 13:58:04;;;;;;;;;;;21.00;99.90;;;;;;5086584;28;20034;-33
2023/10/06 14:00:32;;;;;;;;;;;21.10;99.90;;;;;;5094193;28;19994;-34
2023/10/06 14:02:59;;;;;;;;;;;21.10;99.90;;;;;;5085770;28;19951;-33
2023/10/06 14:05:30;;;;;;;;;;;21.10;99.90;;;;;;5081497;28;20483;-33
2023/10/06 14:07:58;;;;;;;;;;;21.10;99.90;;;;;;5082800;28;20398;-33
2023/10/06 14:10:26;;;;;;;;;;;21.10;99.90;;;;;;5080581;28;20388;-32
2023/10/06 14:13:00;;;;;;;;;;;21.00;99.90;;;;;;5085604;28;19943;-32
2023/10/06 14:15:40;;;;;;;;;;;20.90;99.90;;;;;;5082506;28;19955;-33
2023/10/06 14:18:07;;;;;;;;;;;20.90;99.90;;;;;;5089541;28;19991;-33
2023/10/06 14:20:35;;;;;;;;;;;20.80;99.90;;;;;;5095404;28;20358;-32
2023/10/06 14:23:02;;;;;;;;;;;20.70;99.90;;;;;;5077607;28;20035;-32